Zwevegem, Belgium
Current Conditions -  °F | °C
As of 9:00 AM on Saturday 25 Oct 2014 (Local Time) from LFQQ Reporting Station
Haze Haze  
Wind Chill: 54°   Ceiling: 600
Heat Index: 54°   Visibility: 2.8mi
Dew Point: 54°   Wind: 6mph
Humidity: 100%   Direction: 180°S
Pressure: 30.06"   Gusts: NA
Location:  50.81°N, 3.34°E
Report Text: LFQQ 250700Z 18005KT 4500 BR OVC006 12/12 Q1018 TEMPO 2000DZ OVC003
Loading
Personal Weather Stations






























Interactive Weather Map
Tropical Storm Tracking
New forecast layout! Learn more

10-Day Weather Forecast

Advertisements
Track Severe Weather on mobile